Terminal Aerodrome Forecast
Issued by NWS Billings, MT

Home | Current Version | Previous Version | Text Only | Print | Product List | Glossary On
Versions: 1 2 3 4 5 6 7 8 9 10 11 12 13 14 15 16 17 18 19 20 21 22 23 24 25 26 27 28 29 30 31 32 33 34
000
FTUS45 KBYZ 041732
TAFMLS
TAF
KMLS 041732Z 0418/0518 20008KT P6SM BKN090
     FM042000 24015KT P6SM BKN060
     FM042300 28018G25KT P6SM VCSH BKN040
     FM050600 28020G30KT 5SM -SN SCT020 BKN030
     FM051200 25010KT P6SM VCSH SCT030 BKN060=

USA.gov is the U.S. government's official web portal to all federal, state and local government web resources and services.